Houwa Maru — JL6394 — position and weather

sailwx.info

Track history (hours):
 
Tides and Currents Weather Stations Pressure Air Temp Water Temp Dewpoint Dewpoint Depression Visibility Wind Speed Wind Dir Waves Ship Positions

Houwa Maru

Last reported at 2016-Sep-29 00:15 UTC. Time now 2016-Sep-29 13:37 UTC.
Position N 35°08' E 139°45'.

Length 76 m.

Type: Ship. MMSI: 431500378.

Date/timePositionNaut miles runAvg speedWind from/ knotsBaromVisibWave heightAir tempDewpointWater temp
2016-Sep-29 00:15N 35°08' E 139°45'22 8.0
2016-Sep-28 21:32N 35°29' E 139°39'0 0.0
2016-Sep-28 19:32N 35°29' E 139°39'0 0.0
2016-Sep-28 16:32N 35°29' E 139°39'0 0.0
2016-Sep-28 15:32N 35°29' E 139°39'0 0.0
2016-Sep-28 12:32N 35°29' E 139°39'0 0.0
2016-Sep-28 08:32N 35°29' E 139°39'23 2.5
2016-Sep-27 23:30N 35°06' E 139°45'11 0.8
2016-Sep-27 10:06N 35°17' E 139°41'14 1.4
2016-Sep-27 00:28N 35°30' E 139°46'3 0.8
2016-Sep-26 20:31N 35°30' E 139°50'0 0.0
2016-Sep-26 19:25N 35°30' E 139°50'0 0.0
2016-Sep-26 15:28N 35°30' E 139°50'0 0.0
2016-Sep-26 13:31N 35°30' E 139°50'0 0.0
2016-Sep-26 11:28N 35°30' E 139°50'0 0.0
2016-Sep-26 08:31N 35°30' E 139°50'  
2016-Sep-20 17:32N 35°20' E 139°40'0 0.0
2016-Sep-20 14:23N 35°20' E 139°40'0 0.0
2016-Sep-20 13:32N 35°20' E 139°40'8 2.7
2016-Sep-20 10:32N 35°28' E 139°39'0 0.0
2016-Sep-20 08:32N 35°28' E 139°39'0 0.0
2016-Sep-20 07:32N 35°28' E 139°39'0 0.0
2016-Sep-20 06:32N 35°28' E 139°39'0 0.0
2016-Sep-20 02:32N 35°28' E 139°39'0 0.0
2016-Sep-19 23:32N 35°28' E 139°39'0 0.1
2016-Sep-19 19:32N 35°29' E 139°39'0 0.0
2016-Sep-19 18:32N 35°29' E 139°39'0 0.0
2016-Sep-19 16:29N 35°29' E 139°39'0 0.0
2016-Sep-19 14:32N 35°29' E 139°39'0 0.0
2016-Sep-19 13:32N 35°29' E 139°39'0 0.0
2016-Sep-19 12:32N 35°29' E 139°39'0 0.0
2016-Sep-19 11:32N 35°29' E 139°39'0 0.0
2016-Sep-19 09:32N 35°29' E 139°39'0 0.0
2016-Sep-19 07:32N 35°29' E 139°39'0 0.0
2016-Sep-19 06:32N 35°29' E 139°39'0 0.0
2016-Sep-19 03:32N 35°29' E 139°39'0 0.0
2016-Sep-19 02:26N 35°29' E 139°39'18 9.4
2016-Sep-19 00:33N 35°12' E 139°47'  
Track history (hours):
 
Tides and Currents Weather Stations Pressure Air Temp Water Temp Dewpoint Dewpoint Depression Visibility Wind Speed Wind Dir Waves Ship Positions

Houwa Maru

Last reported at 2016-Sep-29 00:15 UTC. Time now 2016-Sep-29 13:37 UTC.
Position N 35°08' E 139°45'.

Length 76 m.

Type: Ship. MMSI: 431500378.

Date/timePositionNaut miles runAvg speedWind from/ knotsBaromVisibWave heightAir tempDewpointWater temp
2016-Sep-29 00:15N 35°08' E 139°45'22 8.0
2016-Sep-28 21:32N 35°29' E 139°39'0 0.0
2016-Sep-28 19:32N 35°29' E 139°39'0 0.0
2016-Sep-28 16:32N 35°29' E 139°39'0 0.0
2016-Sep-28 15:32N 35°29' E 139°39'0 0.0
2016-Sep-28 12:32N 35°29' E 139°39'0 0.0
2016-Sep-28 08:32N 35°29' E 139°39'23 2.5
2016-Sep-27 23:30N 35°06' E 139°45'11 0.8
2016-Sep-27 10:06N 35°17' E 139°41'14 1.4
2016-Sep-27 00:28N 35°30' E 139°46'3 0.8
2016-Sep-26 20:31N 35°30' E 139°50'0 0.0
2016-Sep-26 19:25N 35°30' E 139°50'0 0.0
2016-Sep-26 15:28N 35°30' E 139°50'0 0.0
2016-Sep-26 13:31N 35°30' E 139°50'0 0.0
2016-Sep-26 11:28N 35°30' E 139°50'0 0.0
2016-Sep-26 08:31N 35°30' E 139°50'  
2016-Sep-20 17:32N 35°20' E 139°40'0 0.0
2016-Sep-20 14:23N 35°20' E 139°40'0 0.0
2016-Sep-20 13:32N 35°20' E 139°40'8 2.7
2016-Sep-20 10:32N 35°28' E 139°39'0 0.0
2016-Sep-20 08:32N 35°28' E 139°39'0 0.0
2016-Sep-20 07:32N 35°28' E 139°39'0 0.0
2016-Sep-20 06:32N 35°28' E 139°39'0 0.0
2016-Sep-20 02:32N 35°28' E 139°39'0 0.0
2016-Sep-19 23:32N 35°28' E 139°39'0 0.1
2016-Sep-19 19:32N 35°29' E 139°39'0 0.0
2016-Sep-19 18:32N 35°29' E 139°39'0 0.0
2016-Sep-19 16:29N 35°29' E 139°39'0 0.0
2016-Sep-19 14:32N 35°29' E 139°39'0 0.0
2016-Sep-19 13:32N 35°29' E 139°39'0 0.0
2016-Sep-19 12:32N 35°29' E 139°39'0 0.0
2016-Sep-19 11:32N 35°29' E 139°39'0 0.0
2016-Sep-19 09:32N 35°29' E 139°39'0 0.0
2016-Sep-19 07:32N 35°29' E 139°39'0 0.0
2016-Sep-19 06:32N 35°29' E 139°39'0 0.0
2016-Sep-19 03:32N 35°29' E 139°39'0 0.0
2016-Sep-19 02:26N 35°29' E 139°39'18 9.4
2016-Sep-19 00:33N 35°12' E 139°47'  

Dump ship's entire track history